EHGG/GRQ METAR and TAF weather

Enter ICAO airport designator
Station Type Date Time Source
EHGG METAR 2019/05/26 01:55 UTC NOAA

EHGG 260155Z AUTO 21005KT 9999 NSC 09/07 Q1013


Station Type Date Time Source
EHGG Decoded METAR 2019/05/26 01:55 UTC NOAA

Groningen Airport Eelde, Netherlands (EHGG) 53-08N 006-35E 4M
May 25, 2019 - 09:55 PM EDT / 2019.05.26 0155 UTC
Wind: from the SSW (210 degrees) at 6 MPH (5 KT):0
Visibility: greater than 7 mile(s):0
Temperature: 48 F (9 C)
Dew Point: 44 F (7 C)
Relative Humidity: 87%
Pressure (altimeter): 29.91 in. Hg (1013 hPa)
ob: EHGG 260155Z AUTO 21005KT 9999 NSC 09/07 Q1013
cycle: 2

Station Type Date Time Source
EHGG TAF 2019/05/25 18:27 UTC NOAA

TAF EHGG 251702Z 2518/2624 35005KT 9999 SCT025
BECMG 2606/2609 24012KT PROB40
TEMPO 2606/2609 -RA BKN012
TEMPO 2612/2621 24014G24KT
BECMG 2619/2621 7000 -RA BKN014 PROB40
TEMPO 2620/2624 4500 RA BKN008

Example: see airport list